createdAt,value
2023-04-26T00:00:45.787Z,0.61
2023-04-26T00:01:45.785Z,0.65
2023-04-26T00:02:45.999Z,0.69
2023-04-26T00:03:46.112Z,0.68
2023-04-26T00:04:45.982Z,0.69
2023-04-26T00:05:45.906Z,0.66
2023-04-26T00:06:45.850Z,0.68
2023-04-26T00:07:45.856Z,0.68
2023-04-26T00:08:45.893Z,0.65
2023-04-26T00:09:45.934Z,0.66
2023-04-26T00:10:45.960Z,0.65
2023-04-26T00:11:45.950Z,0.65
2023-04-26T00:12:45.945Z,0.67
2023-04-26T00:13:46.007Z,0.65
2023-04-26T00:14:46.018Z,0.67
2023-04-26T00:15:46.008Z,0.71
2023-04-26T00:16:46.109Z,0.73
2023-04-26T00:17:46.105Z,0.74
2023-04-26T00:18:46.081Z,0.67
2023-04-26T00:19:46.156Z,0.74
2023-04-26T00:20:46.144Z,0.73
2023-04-26T00:21:46.158Z,0.72
2023-04-26T00:22:46.173Z,0.77
2023-04-26T00:23:46.201Z,0.76
2023-04-26T00:24:46.208Z,0.83
2023-04-26T00:25:46.225Z,0.80
2023-04-26T00:26:46.242Z,0.80
2023-04-26T00:27:46.280Z,0.79
2023-04-26T00:28:46.284Z,0.77
2023-04-26T00:29:46.352Z,0.80
2023-04-26T00:30:46.349Z,0.76
2023-04-26T00:31:46.428Z,0.73
2023-04-26T00:32:46.395Z,0.75
2023-04-26T00:33:46.450Z,0.72
2023-04-26T00:34:46.472Z,0.69
2023-04-26T00:35:46.521Z,0.68
2023-04-26T00:36:46.549Z,0.73
2023-04-26T00:37:46.545Z,0.75
2023-04-26T00:38:46.620Z,0.72
2023-04-26T00:39:46.624Z,0.70
2023-04-26T00:40:46.644Z,0.76
2023-04-26T00:41:46.664Z,0.79
2023-04-26T00:42:46.687Z,0.76
2023-04-26T00:43:46.713Z,0.77
2023-04-26T00:44:46.780Z,0.84
2023-04-26T00:45:46.831Z,0.80
2023-04-26T00:46:46.820Z,0.74
2023-04-26T00:47:46.872Z,0.77
2023-04-26T00:48:46.856Z,0.78
2023-04-26T00:49:46.900Z,0.82
2023-04-26T00:50:46.921Z,0.83
2023-04-26T00:51:46.941Z,0.89
2023-04-26T00:52:46.998Z,0.90
2023-04-26T00:53:46.992Z,0.92
2023-04-26T00:54:47.029Z,0.91
2023-04-26T00:55:47.132Z,0.91
2023-04-26T00:56:47.094Z,0.95
2023-04-26T00:57:47.156Z,0.96
2023-04-26T00:58:47.155Z,0.94
2023-04-26T00:59:47.196Z,0.95
2023-04-26T01:00:47.290Z,1.00
2023-04-26T01:01:47.254Z,1.01
2023-04-26T01:02:47.523Z,1.05
2023-04-26T01:03:47.428Z,1.06
2023-04-26T01:04:47.347Z,1.07
2023-04-26T01:05:47.410Z,1.12
2023-04-26T01:06:47.455Z,1.11
2023-04-26T01:07:47.488Z,1.12
2023-04-26T01:08:47.536Z,1.15
2023-04-26T01:09:47.537Z,1.16
2023-04-26T01:10:47.555Z,1.12
2023-04-26T01:11:47.597Z,1.06
2023-04-26T01:12:47.663Z,1.05
2023-04-26T01:13:47.709Z,1.09
2023-04-26T01:14:47.758Z,1.08
2023-04-26T01:15:47.807Z,1.07
2023-04-26T01:16:47.852Z,1.04
2023-04-26T01:17:47.893Z,1.07
2023-04-26T01:18:47.908Z,1.12
2023-04-26T01:19:47.952Z,1.11
2023-04-26T01:20:48.007Z,1.12
2023-04-26T01:21:48.030Z,1.11
2023-04-26T01:22:48.077Z,1.15
2023-04-26T01:23:48.089Z,1.15
2023-04-26T01:24:48.146Z,1.15
2023-04-26T01:25:48.206Z,1.14
2023-04-26T01:26:48.248Z,1.15
2023-04-26T01:27:48.282Z,1.15
2023-04-26T01:28:48.335Z,1.15
2023-04-26T01:29:48.414Z,1.16
2023-04-26T01:30:48.458Z,1.14
2023-04-26T01:31:48.475Z,1.20
2023-04-26T01:32:48.509Z,1.21
2023-04-26T01:33:48.559Z,1.24
2023-04-26T01:34:48.609Z,1.30
2023-04-26T01:35:48.688Z,1.22
2023-04-26T01:36:48.685Z,1.23
2023-04-26T01:37:48.734Z,1.17
2023-04-26T01:38:48.834Z,1.17
2023-04-26T01:39:48.819Z,1.11
2023-04-26T01:40:48.880Z,1.11
2023-04-26T01:41:48.923Z,1.11
2023-04-26T01:42:48.964Z,1.12
2023-04-26T01:43:49.005Z,1.13
2023-04-26T01:44:49.080Z,1.08
2023-04-26T01:45:49.350Z,1.04
2023-04-26T01:46:49.311Z,1.04
2023-04-26T01:47:49.281Z,1.04
2023-04-26T01:48:49.331Z,1.04
2023-04-26T01:49:49.308Z,1.01
2023-04-26T01:50:49.359Z,1.08
2023-04-26T01:51:49.385Z,1.05
2023-04-26T01:52:49.456Z,1.11
2023-04-26T01:53:49.506Z,1.07
2023-04-26T01:54:49.547Z,1.04
2023-04-26T01:55:49.604Z,1.06
2023-04-26T01:56:49.669Z,1.12
2023-04-26T01:57:49.703Z,1.19
2023-04-26T01:58:49.840Z,1.17
2023-04-26T01:59:49.795Z,1.16
2023-04-26T02:00:49.860Z,1.11
2023-04-26T02:01:49.969Z,1.18
2023-04-26T02:02:50.047Z,1.27
2023-04-26T02:03:50.049Z,1.44
2023-04-26T02:04:50.086Z,1.44
2023-04-26T02:05:50.103Z,1.32
2023-04-26T02:06:51.008Z,1.28
2023-04-26T02:07:50.200Z,1.28
2023-04-26T02:08:50.397Z,1.23
2023-04-26T02:09:50.316Z,1.16
2023-04-26T02:10:50.376Z,1.18
2023-04-26T02:11:50.405Z,1.15
2023-04-26T02:12:50.458Z,1.16
2023-04-26T02:13:50.484Z,1.17
2023-04-26T02:14:50.554Z,1.14
2023-04-26T02:15:50.637Z,1.13
2023-04-26T02:16:50.675Z,1.16
2023-04-26T02:17:50.804Z,1.22
2023-04-26T02:18:51.059Z,1.14
2023-04-26T02:19:50.842Z,1.21
2023-04-26T02:20:50.892Z,1.24
2023-04-26T02:21:50.951Z,1.18
2023-04-26T02:22:51.022Z,1.23
2023-04-26T02:23:51.059Z,1.28
2023-04-26T02:24:51.123Z,1.26
2023-04-26T02:25:51.158Z,1.29
2023-04-26T02:26:51.233Z,1.43
2023-04-26T02:27:51.271Z,1.47
2023-04-26T02:28:51.548Z,1.41
2023-04-26T02:29:51.403Z,1.40
2023-04-26T02:30:51.480Z,1.46
2023-04-26T02:31:51.645Z,1.49
2023-04-26T02:32:51.615Z,1.46
2023-04-26T02:33:51.652Z,1.49
2023-04-26T02:34:51.676Z,1.52
2023-04-26T02:35:51.763Z,1.55
2023-04-26T02:36:51.804Z,1.57
2023-04-26T02:37:51.899Z,1.63
2023-04-26T02:38:52.097Z,1.75
2023-04-26T02:39:52.017Z,1.81
2023-04-26T02:40:52.079Z,1.73
2023-04-26T02:41:52.162Z,1.72
2023-04-26T02:42:52.157Z,1.73
2023-04-26T02:43:52.245Z,1.75
2023-04-26T02:44:52.380Z,1.82
2023-04-26T02:45:52.403Z,1.90
2023-04-26T02:46:52.522Z,1.81
2023-04-26T02:47:52.607Z,1.81
2023-04-26T02:48:52.666Z,1.89
2023-04-26T02:49:52.631Z,1.74
2023-04-26T02:50:52.724Z,1.73
2023-04-26T02:51:53.523Z,1.71
2023-04-26T02:52:52.811Z,1.65
2023-04-26T02:53:52.896Z,1.61
2023-04-26T02:54:52.981Z,1.53
2023-04-26T02:55:53.007Z,1.59
2023-04-26T02:56:53.049Z,1.50
2023-04-26T02:57:53.088Z,1.45
2023-04-26T02:58:53.388Z,1.45
2023-04-26T02:59:53.210Z,1.46
2023-04-26T03:00:53.359Z,1.44
2023-04-26T03:01:53.367Z,1.52
2023-04-26T03:02:53.569Z,1.51
2023-04-26T03:03:53.523Z,1.48
2023-04-26T03:04:53.521Z,1.59
2023-04-26T03:05:53.591Z,1.47
2023-04-26T03:06:53.616Z,1.44
2023-04-26T03:07:53.692Z,1.48
2023-04-26T03:08:53.937Z,1.50
2023-04-26T03:09:53.901Z,1.47
2023-04-26T03:10:53.904Z,1.50
2023-04-26T03:11:53.933Z,1.48
2023-04-26T03:12:54.039Z,1.41
2023-04-26T03:13:54.059Z,1.41
2023-04-26T03:14:54.142Z,1.35
2023-04-26T03:15:54.151Z,1.34
2023-04-26T03:16:54.269Z,1.36
2023-04-26T03:17:54.264Z,1.37
2023-04-26T03:18:54.513Z,1.41
2023-04-26T03:19:54.288Z,1.40
2023-04-26T03:20:54.324Z,1.47
2023-04-26T03:21:54.368Z,1.46
2023-04-26T03:22:54.415Z,1.47
2023-04-26T03:23:54.413Z,1.53
2023-04-26T03:24:54.526Z,1.52
2023-04-26T03:25:54.594Z,1.35
2023-04-26T03:26:54.602Z,1.53
2023-04-26T03:27:54.612Z,1.57
2023-04-26T03:28:54.942Z,1.62
2023-04-26T03:29:54.737Z,1.62
2023-04-26T03:30:54.778Z,1.67
2023-04-26T03:31:54.902Z,1.63
2023-04-26T03:32:54.907Z,1.63
2023-04-26T03:33:54.899Z,1.65
2023-04-26T03:34:54.965Z,1.70
2023-04-26T03:35:54.970Z,1.61
2023-04-26T03:36:55.057Z,1.66
2023-04-26T03:37:56.687Z,1.71
2023-04-26T03:38:55.081Z,1.77
2023-04-26T03:39:55.069Z,1.77
2023-04-26T03:40:55.067Z,1.73
2023-04-26T03:41:55.040Z,1.67
2023-04-26T03:42:55.035Z,1.66
2023-04-26T03:43:55.044Z,1.66
2023-04-26T03:44:55.040Z,1.66
2023-04-26T03:45:55.051Z,1.66
2023-04-26T03:46:55.005Z,1.71
2023-04-26T03:47:55.132Z,1.72
2023-04-26T03:48:55.100Z,1.76
2023-04-26T03:49:55.009Z,1.79
2023-04-26T03:50:54.999Z,1.74
2023-04-26T03:51:55.012Z,1.73
2023-04-26T03:52:54.991Z,1.75
2023-04-26T03:53:54.958Z,1.78
2023-04-26T03:54:54.994Z,1.81
2023-04-26T03:55:54.955Z,1.78
2023-04-26T03:56:54.961Z,1.74
2023-04-26T03:57:54.968Z,1.83
2023-04-26T03:58:54.926Z,1.82
2023-04-26T03:59:54.953Z,2.00
2023-04-26T04:00:54.896Z,2.18
2023-04-26T04:01:54.946Z,2.20
2023-04-26T04:02:55.031Z,2.11
2023-04-26T04:03:55.276Z,2.11
2023-04-26T04:04:55.024Z,2.27
2023-04-26T04:05:54.956Z,2.47
2023-04-26T04:06:54.869Z,2.49
2023-04-26T04:07:54.859Z,2.62
2023-04-26T04:08:55.028Z,2.60
2023-04-26T04:09:54.862Z,2.74
2023-04-26T04:10:54.840Z,2.85
2023-04-26T04:11:54.849Z,2.89
2023-04-26T04:12:54.847Z,2.70
2023-04-26T04:13:54.823Z,2.68
2023-04-26T04:14:54.858Z,2.86
2023-04-26T04:15:54.888Z,3.07
2023-04-26T04:16:54.790Z,3.17
2023-04-26T04:17:54.885Z,3.26
2023-04-26T04:18:55.123Z,3.22
2023-04-26T04:19:54.888Z,3.40
2023-04-26T04:20:54.791Z,3.44
2023-04-26T04:21:54.779Z,3.38
2023-04-26T04:22:54.763Z,3.31
2023-04-26T04:23:54.752Z,3.38
2023-04-26T04:24:54.751Z,3.49
2023-04-26T04:25:54.751Z,3.36
2023-04-26T04:26:54.740Z,3.34
2023-04-26T04:27:54.735Z,3.39
2023-04-26T04:28:54.908Z,3.39
2023-04-26T04:29:54.726Z,3.60
2023-04-26T04:30:54.766Z,3.68
2023-04-26T04:31:54.699Z,3.89
2023-04-26T04:32:54.694Z,3.97
2023-04-26T04:33:54.697Z,3.95
2023-04-26T04:34:54.680Z,4.12
2023-04-26T04:35:54.677Z,4.07
2023-04-26T04:36:54.658Z,4.03
2023-04-26T04:37:54.683Z,4.07
2023-04-26T04:38:54.996Z,4.03
2023-04-26T04:39:54.662Z,4.05
2023-04-26T04:40:54.643Z,4.08
2023-04-26T04:41:54.648Z,4.18
2023-04-26T04:42:54.642Z,4.35
2023-04-26T04:43:54.592Z,4.37
2023-04-26T04:44:54.638Z,4.61
2023-04-26T04:45:54.620Z,4.61
2023-04-26T04:46:54.611Z,4.69
2023-04-26T04:47:54.684Z,4.83
2023-04-26T04:48:54.870Z,5.28
2023-04-26T04:49:54.610Z,5.37
2023-04-26T04:50:54.584Z,5.81
2023-04-26T04:51:54.558Z,6.19
2023-04-26T04:52:54.542Z,6.19
2023-04-26T04:53:54.552Z,6.34
2023-04-26T04:54:54.544Z,5.97
2023-04-26T04:55:54.522Z,5.98
2023-04-26T04:56:54.541Z,6.07
2023-04-26T04:57:54.559Z,6.36
2023-04-26T04:58:54.635Z,6.78
2023-04-26T04:59:54.503Z,6.77
2023-04-26T05:00:54.497Z,6.83
2023-04-26T05:01:54.559Z,7.12
2023-04-26T05:02:54.737Z,7.17
2023-04-26T05:03:55.038Z,7.08
2023-04-26T05:04:54.642Z,7.05
2023-04-26T05:05:54.602Z,7.05
2023-04-26T05:06:54.658Z,7.04
2023-04-26T05:07:54.730Z,6.99
2023-04-26T05:08:54.770Z,7.05
2023-04-26T05:09:54.814Z,7.05
2023-04-26T05:10:54.871Z,7.24
2023-04-26T05:11:54.927Z,7.25
2023-04-26T05:12:54.966Z,7.12
2023-04-26T05:13:55.134Z,7.23
2023-04-26T05:14:55.117Z,6.95
2023-04-26T05:15:55.146Z,6.83
2023-04-26T05:16:55.224Z,6.73
2023-04-26T05:17:55.296Z,6.75
2023-04-26T05:18:55.327Z,6.76
2023-04-26T05:19:55.391Z,6.72
2023-04-26T05:20:55.439Z,6.77
2023-04-26T05:21:55.539Z,6.78
2023-04-26T05:22:55.599Z,6.89
2023-04-26T05:23:55.676Z,6.61
2023-04-26T05:24:55.765Z,6.75
2023-04-26T05:25:55.796Z,6.48
2023-04-26T05:26:55.826Z,6.37
2023-04-26T05:27:55.892Z,6.47
2023-04-26T05:28:55.955Z,6.48
2023-04-26T05:29:56.046Z,6.49
2023-04-26T05:30:56.099Z,6.69
2023-04-26T05:31:56.209Z,6.65
2023-04-26T05:32:56.239Z,6.88
2023-04-26T05:33:56.292Z,6.91
2023-04-26T05:34:56.366Z,7.03
2023-04-26T05:35:56.429Z,7.27
2023-04-26T05:36:56.492Z,7.24
2023-04-26T05:37:56.541Z,7.51
2023-04-26T05:38:56.758Z,7.92
2023-04-26T05:39:57.091Z,8.34
2023-04-26T05:40:56.747Z,8.61
2023-04-26T05:41:56.794Z,8.59
2023-04-26T05:42:56.841Z,8.86
2023-04-26T05:43:56.887Z,9.56
2023-04-26T05:44:57.097Z,10.76
2023-04-26T05:45:56.995Z,11.45
2023-04-26T05:46:57.044Z,12.43
2023-04-26T05:47:57.085Z,12.79
2023-04-26T05:48:57.088Z,13.49
2023-04-26T05:49:57.602Z,13.42
2023-04-26T05:50:57.141Z,14.99
2023-04-26T05:51:57.235Z,15.92
2023-04-26T05:52:57.226Z,18.45
2023-04-26T05:53:57.221Z,16.34
2023-04-26T05:54:57.573Z,18.72
2023-04-26T05:55:57.272Z,22.33
2023-04-26T05:56:58.979Z,21.13
2023-04-26T05:57:57.308Z,22.85
2023-04-26T05:58:57.331Z,23.96
2023-04-26T05:59:57.306Z,26.73
2023-04-26T06:00:57.337Z,24.26
2023-04-26T06:01:57.402Z,25.62
2023-04-26T06:02:57.424Z,28.55
2023-04-26T06:04:00.228Z,30.67
2023-04-26T06:04:57.540Z,34.85
2023-04-26T06:05:57.461Z,36.02
2023-04-26T06:06:57.345Z,37.49
2023-04-26T06:07:57.359Z,39.67
2023-04-26T06:08:57.333Z,38.52
2023-04-26T06:09:57.306Z,44.30
2023-04-26T06:10:57.335Z,47.06
2023-04-26T06:11:57.299Z,45.44
2023-04-26T06:12:57.318Z,43.50
2023-04-26T06:13:57.277Z,42.49
2023-04-26T06:14:57.294Z,42.80
2023-04-26T06:15:57.595Z,44.65
2023-04-26T06:16:57.345Z,43.73
2023-04-26T06:17:57.312Z,41.90
2023-04-26T06:18:57.262Z,44.95
2023-04-26T06:19:57.280Z,43.58
2023-04-26T06:20:57.257Z,47.64
2023-04-26T06:21:57.451Z,46.89
2023-04-26T06:22:57.236Z,52.36
2023-04-26T06:23:57.256Z,54.78
2023-04-26T06:24:57.227Z,50.88
2023-04-26T06:25:57.220Z,54.96
2023-04-26T06:26:57.196Z,54.87
2023-04-26T06:27:57.203Z,53.01
2023-04-26T06:28:57.203Z,49.13
2023-04-26T06:29:57.190Z,52.50
2023-04-26T06:30:57.224Z,48.95
2023-04-26T06:31:57.184Z,48.90
2023-04-26T06:32:57.207Z,52.72
2023-04-26T06:33:57.184Z,54.00
2023-04-26T06:34:57.161Z,54.03
2023-04-26T06:35:57.626Z,47.26
2023-04-26T06:36:57.161Z,52.26
2023-04-26T06:37:57.129Z,54.72
2023-04-26T06:38:57.139Z,52.15
2023-04-26T06:39:57.152Z,47.10
2023-04-26T06:40:57.173Z,49.16
2023-04-26T06:41:57.154Z,44.61
2023-04-26T06:42:57.217Z,43.75
2023-04-26T06:43:57.230Z,41.92
2023-04-26T06:44:57.240Z,48.61
2023-04-26T06:45:57.619Z,49.48
2023-04-26T06:46:57.270Z,48.02
2023-04-26T06:47:57.390Z,38.08
2023-04-26T06:48:57.345Z,43.37
2023-04-26T06:49:57.345Z,32.47
2023-04-26T06:50:57.404Z,37.82
2023-04-26T06:51:57.418Z,30.12
2023-04-26T06:52:57.461Z,31.27
2023-04-26T06:53:57.483Z,40.14
2023-04-26T06:54:57.928Z,48.35
2023-04-26T06:55:57.578Z,57.12
2023-04-26T06:56:58.403Z,58.53
2023-04-26T06:57:57.610Z,63.73
2023-04-26T06:58:57.665Z,66.95
2023-04-26T06:59:57.947Z,68.96
2023-04-26T07:00:57.666Z,68.60
2023-04-26T07:01:57.753Z,70.51
2023-04-26T07:02:57.823Z,71.21
2023-04-26T07:03:58.185Z,73.83
2023-04-26T07:04:57.836Z,77.10
2023-04-26T07:05:58.100Z,79.43
2023-04-26T07:06:57.759Z,79.02
2023-04-26T07:07:57.875Z,80.16
2023-04-26T07:08:58.912Z,84.59
2023-04-26T07:09:57.934Z,84.62
2023-04-26T07:10:58.288Z,88.83
2023-04-26T07:11:58.093Z,86.93
2023-04-26T07:12:58.101Z,91.54
2023-04-26T07:13:58.189Z,92.68
2023-04-26T07:14:58.242Z,96.64
2023-04-26T07:15:58.329Z,97.95
2023-04-26T07:16:58.366Z,101.61
2023-04-26T07:17:58.434Z,97.28
2023-04-26T07:18:58.529Z,96.59
2023-04-26T07:19:58.483Z,96.09
2023-04-26T07:20:58.569Z,98.72
2023-04-26T07:21:58.577Z,99.67
2023-04-26T07:22:58.578Z,99.77
2023-04-26T07:23:58.631Z,103.17
2023-04-26T07:24:58.671Z,103.64
2023-04-26T07:25:58.680Z,104.90
2023-04-26T07:26:58.748Z,109.63
2023-04-26T07:27:58.741Z,112.26
2023-04-26T07:28:58.753Z,115.97
2023-04-26T07:29:58.903Z,119.04
2023-04-26T07:30:59.130Z,117.47
2023-04-26T07:31:58.813Z,125.13
2023-04-26T07:32:58.950Z,122.76
2023-04-26T07:33:58.876Z,116.47
2023-04-26T07:34:58.820Z,121.31
2023-04-26T07:35:58.840Z,123.01
2023-04-26T07:36:58.821Z,128.51
2023-04-26T07:37:58.815Z,133.20
2023-04-26T07:38:58.823Z,137.77
2023-04-26T07:39:58.823Z,142.98
2023-04-26T07:40:58.839Z,148.29
2023-04-26T07:41:58.814Z,147.00
2023-04-26T07:42:58.807Z,153.51
2023-04-26T07:43:58.797Z,156.27
2023-04-26T07:44:58.831Z,154.82
2023-04-26T07:45:59.177Z,156.02
2023-04-26T07:46:58.852Z,153.79
2023-04-26T07:47:58.916Z,147.51
2023-04-26T07:48:58.857Z,146.78
2023-04-26T07:49:58.843Z,140.31
2023-04-26T07:50:58.874Z,136.52
2023-04-26T07:51:58.874Z,133.57
2023-04-26T07:52:58.900Z,129.89
2023-04-26T07:53:58.893Z,125.95
2023-04-26T07:54:58.922Z,124.22
2023-04-26T07:55:58.957Z,123.44
2023-04-26T07:56:58.975Z,120.10
2023-04-26T07:57:58.992Z,116.42
2023-04-26T07:58:59.004Z,113.47
2023-04-26T07:59:59.006Z,109.18
2023-04-26T08:00:59.048Z,107.12
2023-04-26T08:02:00.745Z,106.22
2023-04-26T08:02:59.274Z,103.24
2023-04-26T08:03:59.589Z,100.66
2023-04-26T08:04:59.470Z,99.89
2023-04-26T08:05:59.279Z,99.54
2023-04-26T08:06:59.213Z,99.20
2023-04-26T08:07:59.253Z,98.18
2023-04-26T08:08:59.313Z,97.47
2023-04-26T08:09:59.310Z,95.23
2023-04-26T08:10:59.375Z,90.17
2023-04-26T08:11:59.449Z,92.25
2023-04-26T08:12:59.435Z,89.31
2023-04-26T08:13:59.439Z,86.24
2023-04-26T08:14:59.484Z,84.03
2023-04-26T08:15:59.517Z,87.92
2023-04-26T08:16:59.595Z,86.52
2023-04-26T08:17:59.616Z,86.11
2023-04-26T08:18:59.615Z,83.19
2023-04-26T08:19:59.837Z,75.84
2023-04-26T08:20:59.670Z,75.26
2023-04-26T08:21:59.690Z,78.30
2023-04-26T08:22:59.752Z,78.24
2023-04-26T08:23:59.856Z,76.36
2023-04-26T08:24:59.859Z,74.29
2023-04-26T08:25:59.861Z,71.41
2023-04-26T08:26:59.914Z,68.61
2023-04-26T08:27:59.968Z,68.25
2023-04-26T08:29:00.005Z,70.20
2023-04-26T08:30:00.002Z,68.65
2023-04-26T08:31:00.081Z,67.65
2023-04-26T08:32:00.158Z,65.44
2023-04-26T08:33:00.189Z,63.46
2023-04-26T08:34:00.171Z,61.47
2023-04-26T08:35:00.252Z,59.18
2023-04-26T08:36:01.031Z,57.37
2023-04-26T08:37:00.288Z,58.16
2023-04-26T08:38:00.337Z,56.85
2023-04-26T08:39:00.365Z,56.40
2023-04-26T08:40:00.429Z,56.79
2023-04-26T08:41:00.487Z,55.29
2023-04-26T08:42:00.509Z,54.45
2023-04-26T08:43:00.540Z,53.54
2023-04-26T08:44:00.579Z,51.66
2023-04-26T08:45:00.633Z,52.37
2023-04-26T08:46:00.741Z,50.62
2023-04-26T08:47:00.692Z,52.67
2023-04-26T08:48:02.561Z,54.00
2023-04-26T08:49:00.708Z,54.78
2023-04-26T08:50:00.698Z,56.60
2023-04-26T08:51:01.152Z,55.81
2023-04-26T08:52:00.677Z,56.73
2023-04-26T08:53:00.672Z,57.17
2023-04-26T08:54:02.199Z,57.60
2023-04-26T08:55:00.665Z,57.64
2023-04-26T08:56:01.174Z,54.00
2023-04-26T08:57:00.674Z,48.92
2023-04-26T08:58:00.659Z,45.00
2023-04-26T08:59:00.652Z,43.74
2023-04-26T09:00:00.640Z,41.63
2023-04-26T09:01:00.628Z,42.99
2023-04-26T09:02:00.645Z,42.03
2023-04-26T09:03:00.745Z,40.92
2023-04-26T09:04:00.793Z,42.25
2023-04-26T09:05:00.848Z,42.76
2023-04-26T09:06:02.520Z,44.34
2023-04-26T09:07:00.600Z,44.47
2023-04-26T09:08:00.589Z,44.74
2023-04-26T09:09:00.559Z,45.53
2023-04-26T09:10:00.560Z,46.96
2023-04-26T09:11:00.579Z,46.69
2023-04-26T09:12:00.522Z,46.40
2023-04-26T09:13:00.563Z,45.78
2023-04-26T09:14:00.554Z,45.01
2023-04-26T09:15:00.534Z,44.36
2023-04-26T09:16:01.918Z,45.47
2023-04-26T09:17:00.525Z,45.54
2023-04-26T09:18:00.533Z,45.56
2023-04-26T09:19:00.532Z,46.01
2023-04-26T09:20:00.480Z,45.21
2023-04-26T09:21:00.490Z,44.71
2023-04-26T09:22:00.476Z,43.70
2023-04-26T09:23:00.480Z,40.84
2023-04-26T09:24:00.501Z,36.66
2023-04-26T09:25:00.456Z,35.54
2023-04-26T09:26:00.457Z,35.15
2023-04-26T09:27:00.448Z,33.76
2023-04-26T09:28:00.435Z,33.50
2023-04-26T09:29:00.426Z,32.80
2023-04-26T09:30:00.421Z,32.35
2023-04-26T09:31:00.458Z,32.69
2023-04-26T09:32:00.445Z,33.70
2023-04-26T09:33:00.448Z,34.18
2023-04-26T09:34:00.403Z,34.11
2023-04-26T09:35:00.384Z,35.45
2023-04-26T09:36:00.384Z,40.25
2023-04-26T09:37:00.383Z,42.28
2023-04-26T09:38:04.055Z,41.24
2023-04-26T09:39:01.367Z,41.50
2023-04-26T09:40:00.429Z,42.41
2023-04-26T09:41:00.714Z,44.58
2023-04-26T09:42:00.355Z,49.71
2023-04-26T09:43:00.354Z,62.01
2023-04-26T09:44:00.317Z,65.28
2023-04-26T09:45:00.313Z,68.79
2023-04-26T09:46:00.676Z,71.87
2023-04-26T09:47:00.418Z,74.56
2023-04-26T09:48:00.351Z,75.96
2023-04-26T09:49:00.303Z,77.25
2023-04-26T09:50:00.272Z,72.93
2023-04-26T09:51:00.348Z,74.91
2023-04-26T09:52:00.261Z,75.58
2023-04-26T09:53:00.265Z,74.66
2023-04-26T09:54:00.249Z,67.43
2023-04-26T09:55:00.251Z,63.81
2023-04-26T09:56:00.246Z,60.45
2023-04-26T09:57:00.261Z,58.24
2023-04-26T09:58:00.246Z,52.35
2023-04-26T09:59:00.209Z,50.26
2023-04-26T10:00:00.246Z,51.39
2023-04-26T10:01:00.268Z,48.70
2023-04-26T10:02:00.202Z,49.29
2023-04-26T10:03:00.293Z,48.27
2023-04-26T10:04:01.343Z,47.50
2023-04-26T10:05:00.534Z,46.92
2023-04-26T10:06:00.173Z,47.51
2023-04-26T10:07:00.173Z,46.07
2023-04-26T10:08:00.157Z,45.29
2023-04-26T10:09:00.127Z,46.88
2023-04-26T10:10:00.205Z,46.83
2023-04-26T10:11:00.139Z,45.58
2023-04-26T10:12:00.156Z,46.39
2023-04-26T10:13:00.150Z,45.34
2023-04-26T10:14:00.200Z,45.11
2023-04-26T10:15:00.153Z,44.24
2023-04-26T10:16:00.162Z,43.04
2023-04-26T10:17:00.142Z,41.35
2023-04-26T10:18:00.138Z,40.62
2023-04-26T10:19:00.097Z,39.61
2023-04-26T10:20:00.121Z,39.60
2023-04-26T10:21:00.097Z,40.47
2023-04-26T10:22:00.066Z,38.86
2023-04-26T10:23:00.063Z,37.77
2023-04-26T10:24:00.075Z,38.82
2023-04-26T10:25:00.032Z,36.73
2023-04-26T10:26:00.031Z,35.19
2023-04-26T10:26:59.996Z,34.02
2023-04-26T10:28:00.023Z,35.51
2023-04-26T10:29:02.571Z,36.04
2023-04-26T10:30:00.034Z,38.10
2023-04-26T10:31:00.026Z,38.74
2023-04-26T10:32:00.040Z,37.82
2023-04-26T10:33:00.036Z,38.00
2023-04-26T10:34:00.031Z,35.32
2023-04-26T10:35:00.007Z,36.07
2023-04-26T10:36:00.183Z,34.96
2023-04-26T10:36:59.974Z,35.13
2023-04-26T10:37:59.977Z,35.67
2023-04-26T10:38:59.990Z,38.58
2023-04-26T10:39:59.972Z,41.90
2023-04-26T10:40:59.966Z,45.01
2023-04-26T10:41:59.949Z,48.25
2023-04-26T10:42:59.938Z,47.17
2023-04-26T10:43:59.964Z,46.39
2023-04-26T10:44:59.918Z,44.81
2023-04-26T10:45:59.958Z,38.58
2023-04-26T10:46:59.912Z,38.98
2023-04-26T10:47:59.989Z,41.39
2023-04-26T10:48:59.889Z,39.86
2023-04-26T10:49:59.928Z,38.87
2023-04-26T10:50:59.885Z,35.82
2023-04-26T10:51:59.879Z,36.96
2023-04-26T10:53:01.674Z,36.08
2023-04-26T10:53:59.937Z,34.01
2023-04-26T10:54:59.869Z,33.00
2023-04-26T10:55:59.864Z,32.87
2023-04-26T10:56:59.873Z,32.42
2023-04-26T10:57:59.900Z,31.75
2023-04-26T10:58:59.814Z,32.07
2023-04-26T10:59:59.908Z,31.02
2023-04-26T11:00:59.874Z,30.93
2023-04-26T11:01:59.824Z,30.05
2023-04-26T11:02:59.867Z,29.94
2023-04-26T11:04:00.098Z,29.54
2023-04-26T11:05:00.776Z,28.62
2023-04-26T11:05:59.802Z,28.04
2023-04-26T11:06:59.789Z,28.76
2023-04-26T11:07:59.799Z,27.04
2023-04-26T11:08:59.771Z,24.99
2023-04-26T11:09:59.773Z,24.59
2023-04-26T11:10:59.788Z,24.08
2023-04-26T11:11:59.747Z,21.86
2023-04-26T11:12:59.739Z,21.73
2023-04-26T11:13:59.739Z,19.79
2023-04-26T11:14:59.750Z,19.71
2023-04-26T11:15:59.788Z,18.56
2023-04-26T11:16:59.765Z,18.02
2023-04-26T11:17:59.837Z,18.36
2023-04-26T11:18:59.798Z,19.43
2023-04-26T11:19:59.885Z,19.22
2023-04-26T11:20:59.876Z,19.43
2023-04-26T11:21:59.851Z,18.96
2023-04-26T11:22:59.866Z,17.46
2023-04-26T11:23:59.878Z,19.00
2023-04-26T11:24:59.900Z,18.21
2023-04-26T11:26:00.258Z,18.20
2023-04-26T11:26:59.900Z,17.14
2023-04-26T11:27:59.928Z,16.78
2023-04-26T11:28:59.955Z,15.79
2023-04-26T11:29:59.941Z,15.29
2023-04-26T11:31:00.279Z,15.71
2023-04-26T11:32:00.047Z,15.39
2023-04-26T11:33:00.075Z,14.91
2023-04-26T11:34:00.063Z,16.74
2023-04-26T11:35:00.065Z,19.49
2023-04-26T11:36:00.098Z,20.67
2023-04-26T11:37:00.062Z,21.71
2023-04-26T11:38:00.134Z,22.67
2023-04-26T11:39:00.145Z,21.84
2023-04-26T11:40:00.166Z,21.47
2023-04-26T11:41:00.228Z,21.87
2023-04-26T11:42:00.275Z,22.59
2023-04-26T11:43:00.348Z,23.33
2023-04-26T11:44:00.458Z,23.65
2023-04-26T11:45:00.503Z,23.42
2023-04-26T11:46:00.538Z,22.89
2023-04-26T11:47:00.632Z,22.78
2023-04-26T11:48:00.705Z,22.35
2023-04-26T11:49:00.710Z,23.52
2023-04-26T11:50:00.790Z,23.19
2023-04-26T11:51:00.879Z,23.43
2023-04-26T11:52:00.902Z,23.86
2023-04-26T11:53:00.982Z,23.97
2023-04-26T11:54:01.018Z,23.67
2023-04-26T11:55:01.096Z,23.78
2023-04-26T11:56:01.179Z,23.93
2023-04-26T11:57:01.173Z,23.21
2023-04-26T11:58:01.265Z,22.59
2023-04-26T11:59:01.351Z,23.17
2023-04-26T12:00:01.363Z,24.06
2023-04-26T12:01:01.440Z,23.78
2023-04-26T12:02:01.553Z,22.73
2023-04-26T12:03:01.777Z,22.02
2023-04-26T12:04:01.738Z,22.39
2023-04-26T12:05:01.800Z,20.99
2023-04-26T12:06:01.746Z,21.74
2023-04-26T12:07:01.797Z,22.68
2023-04-26T12:08:01.865Z,22.33
2023-04-26T12:09:01.886Z,22.58
2023-04-26T12:10:02.001Z,22.22
2023-04-26T12:11:02.208Z,21.40
2023-04-26T12:12:02.160Z,22.10
2023-04-26T12:13:02.173Z,21.61
2023-04-26T12:14:02.229Z,21.47
2023-04-26T12:15:02.342Z,21.26
2023-04-26T12:16:05.299Z,21.14
2023-04-26T12:17:03.605Z,21.17
2023-04-26T12:18:02.348Z,21.21
2023-04-26T12:19:02.340Z,21.12
2023-04-26T12:20:02.422Z,21.37
2023-04-26T12:21:02.353Z,20.88
2023-04-26T12:22:02.331Z,20.67
2023-04-26T12:23:02.312Z,19.76
2023-04-26T12:24:02.297Z,19.04
2023-04-26T12:25:02.266Z,19.00
2023-04-26T12:26:02.300Z,18.46
2023-04-26T12:27:02.697Z,18.48
2023-04-26T12:28:02.407Z,18.30
2023-04-26T12:29:02.450Z,18.06
2023-04-26T12:30:02.535Z,18.23
2023-04-26T12:31:02.559Z,18.44
2023-04-26T12:32:02.851Z,18.00
2023-04-26T12:33:15.563Z,18.46
2023-04-26T12:34:03.646Z,18.46
2023-04-26T12:35:02.617Z,18.14
2023-04-26T12:36:02.713Z,17.95
2023-04-26T12:37:02.644Z,17.92
2023-04-26T12:38:02.639Z,15.88
2023-04-26T12:39:02.601Z,17.87
2023-04-26T12:40:02.637Z,17.48
2023-04-26T12:41:02.616Z,16.90
2023-04-26T12:42:02.592Z,17.56
2023-04-26T12:43:02.596Z,16.93
2023-04-26T12:44:02.604Z,18.28
2023-04-26T12:45:02.623Z,17.36
2023-04-26T12:46:02.696Z,17.03
2023-04-26T12:47:02.722Z,17.24
2023-04-26T12:48:02.887Z,17.02
2023-04-26T12:49:02.803Z,17.36
2023-04-26T12:50:02.872Z,16.86
2023-04-26T12:51:02.924Z,17.01
2023-04-26T12:52:02.996Z,16.02
2023-04-26T12:53:03.049Z,16.09
2023-04-26T12:54:03.118Z,15.94
2023-04-26T12:55:03.147Z,14.80
2023-04-26T12:56:03.215Z,14.03
2023-04-26T12:57:03.323Z,14.52
2023-04-26T12:58:03.337Z,12.95
2023-04-26T12:59:03.426Z,13.38
2023-04-26T13:00:03.471Z,13.10
2023-04-26T13:01:03.610Z,12.79
2023-04-26T13:02:03.575Z,12.23
2023-04-26T13:03:03.740Z,12.68